< Cyclone 199107 1991 Season Cyclone 199109 >
Cyclone 199108 (MARIAN)
General InformationTrack Information on Google MapsDetailed Wind InformationList of All Images || ResourceGoogle EarthGE AnimationAtom FeedGeoJSON
Detalied Best Track (Time Zone = UTC)
Year Month Day Hour Lat. Long. Pressure (hPa) Wind (kt) Class Image Chart
1991 4 9 00 -8.7 130.0 1004 25 2 Image --
1991 4 9 06 -8.8 129.4 1004 25 2 Image --
1991 4 9 12 -8.8 128.8 1004 25 2 Image --
1991 4 9 18 -8.9 128.2 1002 27 2 Image --
1991 4 10 00 -9.2 127.6 1000 31 2 Image --
1991 4 10 06 -9.5 127.1 998 35 3 Image --
1991 4 10 12 -9.8 126.6 996 37 3 Image --
1991 4 10 18 -10.2 126.0 991 45 3 Image --
1991 4 11 00 -10.5 125.5 985 54 4 Image --
1991 4 11 06 -10.9 124.9 978 64 5 Image --
1991 4 11 12 -11.2 124.3 970 74 5 Image --
1991 4 11 18 -11.5 123.6 962 82 5 Image --
1991 4 12 00 -11.8 123.0 955 89 5 Image --
1991 4 12 06 -12.4 122.0 950 95 5 Image --
1991 4 12 12 -12.8 121.2 945 99 5 Image --
1991 4 12 18 -13.0 120.4 935 109 5 Image --
1991 4 13 00 -13.3 120.2 930 113 5 Image --
1991 4 13 06 -13.8 119.9 935 109 5 Image --
1991 4 13 12 -14.0 119.7 935 109 5 Image --
1991 4 13 18 -13.9 119.6 940 103 5 Image --
1991 4 14 00 -13.7 119.5 940 103 5 Image --
1991 4 14 06 -13.7 119.5 945 99 5 Image --
1991 4 14 12 -13.5 119.8 945 99 5 Image --
1991 4 14 18 -13.4 119.8 950 95 5 Image --
1991 4 15 00 -13.6 120.1 955 89 5 Image --
1991 4 15 06 -13.5 120.1 962 82 5 Image --
1991 4 15 12 -13.0 120.1 970 74 5 Image --
1991 4 15 18 -13.3 119.1 980 60 4 Image --
1991 4 16 00 -14.0 118.0 990 47 3 Image --
1991 4 16 06 -14.5 116.8 995 39 3 Image --
1991 4 16 12 -14.7 115.6 995 39 3 Image --
1991 4 16 18 -14.1 114.2 995 39 3 Image --
1991 4 17 00 -14.4 113.8 995 39 3 Image --
1991 4 17 06 -15.1 113.0 995 39 3 Image --
1991 4 17 12 -15.9 112.1 997 35 3 Image --
1991 4 17 18 -16.7 111.2 998 35 3 Image --
1991 4 18 00 -17.6 110.4 998 35 3 Image --
1991 4 18 06 -18.4 109.8 998 35 3 Image --
1991 4 18 12 -19.3 109.3 998 35 3 Image --
1991 4 18 18 -20.2 108.8 1000 31 2 Image --
1991 4 19 00 -21.1 108.3 1002 27 2 Image --
< Cyclone 199107 1991 Season Cyclone 199109 >

Help